Terminal Aerodrome Forecast
Issued by NWS Newport/Morehead City, NC

Home | Current Version | Previous Version | Text Only | Print | Product List | Glossary On
Versions: 1 2 3 4 5 6 7 8 9 10 11 12 13 14 15 16 17
103
FTUS42 KMHX 200521
TAFEWN
TAF
KEWN 200521Z 2006/2106 00000KT P6SM SKC
     FM200900 00000KT P6SM BKN080
     FM201400 VRB03KT P6SM VCSH BKN030
     FM201800 13005KT P6SM BKN060
     FM210500 VRB03KT 3SM BR BKN250=

USA.gov is the U.S. government's official web portal to all federal, state and local government web resources and services.